Time;durP1;ratioP1;P1;durP2;ratioP2;P2;SDS_P1;SDS_P2;PMS_P1;PMS_P2;Temp;Humidity;BMP_temperature;BMP_pressure;BME280_temperature;BME280_humidity;BME280_pressure;Samples;Min_cycle;Max_cycle;Signal;HPM_P1;HPM_P2
2023/11/30 00:00:37;;;;;;;55.63;50.45;;;;;;;;;;5060317;28;20262;-86
2023/11/30 00:03:04;;;;;;;54.28;49.20;;;;;;;;;;5060866;28;20239;-86
2023/11/30 00:05:31;;;;;;;54.10;48.92;;;;;;;;;;5059275;28;20201;-86
2023/11/30 00:08:00;;;;;;;54.50;49.28;;;;;;;;;;5059891;28;20231;-86
2023/11/30 00:10:27;;;;;;;54.13;48.90;;;;;;;;;;5060344;28;20204;-85
2023/11/30 00:12:54;;;;;;;52.03;47.28;;;;;;;;;;5060031;28;20273;-86
2023/11/30 00:15:21;;;;;;;53.85;48.60;;;;;;;;;;5059904;28;20205;-86
2023/11/30 00:17:48;;;;;;;55.72;49.42;;;;;;;;;;5060327;28;20235;-85
2023/11/30 00:20:15;;;;;;;51.03;45.53;;;;;;;;;;5061156;28;20207;-85
2023/11/30 00:22:42;;;;;;;54.78;48.85;;;;;;;;;;5069973;28;20242;-85
2023/11/30 00:25:10;;;;;;;53.35;47.72;;;;;;;;;;5080063;28;20211;-86
2023/11/30 00:27:37;;;;;;;53.30;47.47;;;;;;;;;;5068665;28;20276;-85
2023/11/30 00:30:06;;;;;;;55.05;49.45;;;;;;;;;;5061056;28;20929;-85
2023/11/30 00:32:33;;;;;;;54.72;49.58;;;;;;;;;;5062029;28;20306;-85
2023/11/30 00:35:00;;;;;;;51.03;45.42;;;;;;;;;;5060596;28;20196;-85
2023/11/30 00:37:27;;;;;;;52.33;47.15;;;;;;;;;;5061435;28;20228;-85
2023/11/30 00:39:54;;;;;;;53.92;48.60;;;;;;;;;;5061933;28;20199;-85
2023/11/30 00:42:23;;;;;;;53.95;48.67;;;;;;;;;;5061294;28;20216;-85
2023/11/30 00:44:50;;;;;;;55.15;49.63;;;;;;;;;;5060605;28;20211;-85
2023/11/30 00:47:17;;;;;;;56.03;50.72;;;;;;;;;;5060778;28;20216;-85
2023/11/30 00:49:44;;;;;;;51.47;46.50;;;;;;;;;;5060705;28;20231;-84
2023/11/30 00:52:11;;;;;;;51.67;46.15;;;;;;;;;;5059473;28;20207;-85
2023/11/30 00:54:38;;;;;;;50.63;45.10;;;;;;;;;;5058887;28;20204;-85
2023/11/30 00:57:05;;;;;;;51.08;45.90;;;;;;;;;;5059041;28;20228;-85
2023/11/30 00:59:34;;;;;;;48.88;44.28;;;;;;;;;;5059451;28;20653;-85
2023/11/30 01:02:01;;;;;;;48.92;43.78;;;;;;;;;;5071326;28;20207;-85
2023/11/30 01:04:28;;;;;;;51.05;43.80;;;;;;;;;;5078857;28;20204;-85
2023/11/30 01:06:55;;;;;;;41.22;37.60;;;;;;;;;;5079099;28;20231;-85
2023/11/30 01:09:22;;;;;;;48.95;43.90;;;;;;;;;;5079164;28;20261;-84
2023/11/30 01:11:49;;;;;;;46.83;42.17;;;;;;;;;;5079339;28;20257;-85
2023/11/30 01:14:16;;;;;;;47.35;42.65;;;;;;;;;;5078934;28;20219;-85
2023/11/30 01:16:45;;;;;;;45.15;40.90;;;;;;;;;;5079122;28;20291;-84
2023/11/30 01:19:12;;;;;;;48.47;43.67;;;;;;;;;;5079050;28;20290;-83
2023/11/30 01:21:39;;;;;;;55.03;44.50;;;;;;;;;;5079413;28;20204;-85
2023/11/30 01:24:06;;;;;;;53.20;42.75;;;;;;;;;;5078706;28;20211;-85
2023/11/30 01:26:33;;;;;;;46.72;41.75;;;;;;;;;;5078966;28;20238;-84
2023/11/30 01:29:00;;;;;;;50.53;43.60;;;;;;;;;;5078826;28;20223;-85
2023/11/30 01:31:27;;;;;;;52.22;46.72;;;;;;;;;;5078722;28;20218;-84
2023/11/30 01:33:56;;;;;;;52.05;44.05;;;;;;;;;;5064565;28;20246;-86
2023/11/30 01:36:23;;;;;;;50.83;45.60;;;;;;;;;;5058176;28;20707;-85
2023/11/30 01:38:50;;;;;;;51.97;44.42;;;;;;;;;;5058563;28;20624;-85
2023/11/30 01:41:17;;;;;;;50.08;45.10;;;;;;;;;;5058739;28;20215;-84
2023/11/30 01:43:44;;;;;;;58.53;49.08;;;;;;;;;;5071759;28;20207;-84
2023/11/30 01:46:11;;;;;;;61.75;48.60;;;;;;;;;;5078188;28;20200;-85
2023/11/30 01:48:38;;;;;;;56.35;45.65;;;;;;;;;;5078312;28;20207;-85
2023/11/30 01:51:08;;;;;;;61.25;47.30;;;;;;;;;;5078611;28;20199;-85
2023/11/30 01:53:36;;;;;;;60.13;45.78;;;;;;;;;;5078419;28;20290;-84
2023/11/30 01:56:04;;;;;;;66.32;48.55;;;;;;;;;;5078088;28;20219;-85
2023/11/30 01:58:31;;;;;;;54.83;45.25;;;;;;;;;;5079524;28;20725;-85
2023/11/30 02:00:59;;;;;;;60.28;49.25;;;;;;;;;;5082143;28;20237;-85
2023/11/30 02:03:26;;;;;;;61.35;46.95;;;;;;;;;;5081643;28;20253;-84
2023/11/30 02:05:53;;;;;;;57.33;47.05;;;;;;;;;;5081141;28;20253;-85
2023/11/30 02:08:21;;;;;;;57.55;45.38;;;;;;;;;;5081859;28;20227;-85
2023/11/30 02:10:49;;;;;;;57.60;47.30;;;;;;;;;;5081600;28;20239;-85
2023/11/30 02:13:16;;;;;;;54.97;47.90;;;;;;;;;;5081794;28;20207;-84
2023/11/30 02:15:43;;;;;;;49.80;44.42;;;;;;;;;;5082364;28;20249;-84
2023/11/30 02:18:10;;;;;;;55.88;46.90;;;;;;;;;;5081666;28;20219;-84
2023/11/30 02:20:37;;;;;;;54.00;45.67;;;;;;;;;;5082254;28;20226;-85
2023/11/30 02:23:06;;;;;;;49.58;44.03;;;;;;;;;;5081989;28;20204;-85
2023/11/30 02:25:33;;;;;;;48.83;42.50;;;;;;;;;;5081507;28;20210;-85
2023/11/30 02:27:59;;;;;;;57.28;46.67;;;;;;;;;;5081831;28;20253;-84
2023/11/30 02:30:27;;;;;;;60.17;45.80;;;;;;;;;;5081856;28;20227;-85
2023/11/30 02:32:54;;;;;;;59.35;45.65;;;;;;;;;;5081725;28;20204;-85
2023/11/30 02:35:21;;;;;;;53.30;44.53;;;;;;;;;;5080885;28;20210;-85
2023/11/30 02:37:48;;;;;;;57.67;48.15;;;;;;;;;;5081084;28;20231;-85
2023/11/30 02:40:16;;;;;;;58.72;43.42;;;;;;;;;;5081540;28;20200;-85
2023/11/30 02:42:43;;;;;;;59.20;44.20;;;;;;;;;;5081118;28;20207;-84
2023/11/30 02:45:10;;;;;;;55.40;44.50;;;;;;;;;;5081252;28;20652;-85
2023/11/30 02:47:37;;;;;;;51.92;45.80;;;;;;;;;;5080947;28;20231;-84
2023/11/30 02:50:05;;;;;;;51.40;43.50;;;;;;;;;;5080985;28;20219;-85
2023/11/30 02:52:32;;;;;;;51.50;45.60;;;;;;;;;;5080808;28;20264;-85
2023/11/30 02:54:59;;;;;;;49.72;43.13;;;;;;;;;;5080871;28;20210;-85
2023/11/30 02:57:27;;;;;;;51.80;42.95;;;;;;;;;;5081578;28;20227;-85
2023/11/30 02:59:54;;;;;;;54.28;42.28;;;;;;;;;;5081702;28;20582;-85
2023/11/30 03:02:21;;;;;;;55.15;44.97;;;;;;;;;;5081151;28;20199;-84
2023/11/30 03:04:48;;;;;;;54.05;42.03;;;;;;;;;;5080862;28;20204;-84
2023/11/30 03:07:15;;;;;;;57.10;43.00;;;;;;;;;;5081138;28;20227;-85
2023/11/30 03:09:42;;;;;;;48.60;43.25;;;;;;;;;;5080381;28;20223;-85
2023/11/30 03:12:09;;;;;;;51.35;43.47;;;;;;;;;;5080882;28;20254;-84
2023/11/30 03:14:38;;;;;;;51.65;43.22;;;;;;;;;;5080434;28;20336;-85
2023/11/30 03:17:05;;;;;;;56.83;43.53;;;;;;;;;;5081091;28;20261;-84
2023/11/30 03:19:32;;;;;;;56.88;43.60;;;;;;;;;;5080914;28;20273;-85
2023/11/30 03:21:59;;;;;;;48.13;42.33;;;;;;;;;;5080399;28;20226;-84
2023/11/30 03:24:26;;;;;;;58.38;44.92;;;;;;;;;;5080690;28;20203;-84
2023/11/30 03:26:53;;;;;;;53.55;42.88;;;;;;;;;;5080378;28;20219;-85
2023/11/30 03:29:20;;;;;;;64.88;43.47;;;;;;;;;;5080732;28;20207;-84
2023/11/30 03:31:48;;;;;;;49.95;42.10;;;;;;;;;;5080889;28;20199;-85
2023/11/30 03:34:15;;;;;;;65.32;44.00;;;;;;;;;;5079758;28;20212;-85
2023/11/30 03:36:42;;;;;;;69.68;45.20;;;;;;;;;;5080358;28;20277;-85
2023/11/30 03:39:09;;;;;;;56.83;43.05;;;;;;;;;;5080213;28;20265;-84
2023/11/30 03:41:36;;;;;;;54.28;44.33;;;;;;;;;;5080362;28;20675;-84
2023/11/30 03:44:03;;;;;;;62.33;44.92;;;;;;;;;;5080024;28;20254;-85
2023/11/30 03:46:30;;;;;;;57.20;45.25;;;;;;;;;;5080453;28;20227;-84
2023/11/30 03:48:59;;;;;;;63.55;43.10;;;;;;;;;;5079967;28;20211;-85
2023/11/30 03:51:26;;;;;;;59.05;44.95;;;;;;;;;;5066763;28;20270;-84
2023/11/30 03:53:53;;;;;;;67.88;43.65;;;;;;;;;;5059543;28;20629;-85
2023/11/30 03:56:20;;;;;;;62.78;42.60;;;;;;;;;;5060166;28;20263;-85
2023/11/30 03:58:47;;;;;;;64.10;46.08;;;;;;;;;;5059512;28;20226;-83
2023/11/30 04:01:21;;;;;;;56.72;44.03;;;;;;;;;;5060069;28;20200;-85
2023/11/30 04:03:48;;;;;;;49.72;42.30;;;;;;;;;;5059878;28;20630;-84
2023/11/30 04:06:20;;;;;;;67.10;49.42;;;;;;;;;;5060238;28;20254;-85
2023/11/30 04:08:47;;;;;;;57.88;43.75;;;;;;;;;;5059495;28;20204;-84
2023/11/30 04:11:15;;;;;;;55.25;42.67;;;;;;;;;;5059561;28;20232;-84
2023/11/30 04:13:42;;;;;;;61.35;42.58;;;;;;;;;;5059775;28;20216;-85
2023/11/30 04:16:09;;;;;;;62.67;44.40;;;;;;;;;;5058683;28;20196;-84
2023/11/30 04:18:38;;;;;;;58.88;43.10;;;;;;;;;;5059521;28;20238;-84
2023/11/30 04:21:07;;;;;;;61.45;44.28;;;;;;;;;;5059591;28;20262;-85
2023/11/30 04:23:35;;;;;;;65.13;44.58;;;;;;;;;;5058970;28;20231;-85
2023/11/30 04:26:02;;;;;;;60.55;43.25;;;;;;;;;;5058727;28;20242;-83
2023/11/30 04:28:30;;;;;;;80.03;48.42;;;;;;;;;;5060005;28;20390;-84
2023/11/30 04:30:57;;;;;;;61.80;44.88;;;;;;;;;;5059886;28;20312;-84
2023/11/30 04:33:24;;;;;;;64.88;43.90;;;;;;;;;;5059768;28;20211;-84
2023/11/30 04:35:51;;;;;;;70.40;49.20;;;;;;;;;;5058769;28;20246;-84
2023/11/30 04:38:18;;;;;;;62.83;44.22;;;;;;;;;;5059684;28;20219;-84
2023/11/30 04:40:46;;;;;;;53.03;42.60;;;;;;;;;;5059750;28;20184;-84
2023/11/30 04:43:14;;;;;;;63.03;44.25;;;;;;;;;;5059485;28;20246;-84
2023/11/30 04:45:41;;;;;;;61.25;46.22;;;;;;;;;;5058155;28;20200;-84
2023/11/30 04:48:08;;;;;;;60.13;44.42;;;;;;;;;;5058988;28;20800;-84
2023/11/30 04:50:35;;;;;;;59.75;44.17;;;;;;;;;;5058997;28;20215;-84
2023/11/30 04:53:02;;;;;;;58.78;45.00;;;;;;;;;;5059862;28;20204;-84
2023/11/30 04:55:29;;;;;;;71.75;45.72;;;;;;;;;;5058790;28;20200;-85
2023/11/30 04:57:58;;;;;;;56.58;43.05;;;;;;;;;;5058420;28;20259;-83
2023/11/30 05:00:25;;;;;;;66.03;47.70;;;;;;;;;;5058499;28;20204;-84
2023/11/30 05:02:52;;;;;;;66.43;47.05;;;;;;;;;;5059120;28;20235;-85
2023/11/30 05:05:19;;;;;;;64.03;46.42;;;;;;;;;;5058224;28;20208;-84
2023/11/30 05:07:46;;;;;;;62.97;44.75;;;;;;;;;;5059223;28;20824;-85
2023/11/30 05:10:13;;;;;;;58.53;47.10;;;;;;;;;;5058922;28;20250;-85
2023/11/30 05:12:41;;;;;;;64.40;46.40;;;;;;;;;;5058941;28;20196;-84
2023/11/30 05:15:09;;;;;;;59.25;45.33;;;;;;;;;;5057935;28;20220;-84
2023/11/30 05:17:36;;;;;;;52.58;42.80;;;;;;;;;;5059104;28;20212;-86
2023/11/30 05:20:04;;;;;;;62.80;43.92;;;;;;;;;;5058486;28;20626;-85
2023/11/30 05:22:31;;;;;;;56.75;44.85;;;;;;;;;;5058880;28;20235;-85
2023/11/30 05:24:58;;;;;;;55.08;42.85;;;;;;;;;;5057762;28;20205;-84
2023/11/30 05:27:25;;;;;;;52.80;42.83;;;;;;;;;;5059215;28;20228;-84
2023/11/30 05:29:52;;;;;;;55.80;42.83;;;;;;;;;;5058464;28;20660;-85
2023/11/30 05:32:21;;;;;;;58.22;42.83;;;;;;;;;;5057588;28;20234;-83
2023/11/30 05:34:49;;;;;;;65.20;45.70;;;;;;;;;;5055940;28;20222;-83
2023/11/30 05:37:16;;;;;;;54.40;43.67;;;;;;;;;;5057638;28;20259;-84
2023/11/30 05:39:44;;;;;;;58.22;43.75;;;;;;;;;;5063748;28;20622;-84
2023/11/30 05:42:11;;;;;;;50.03;43.58;;;;;;;;;;5078479;28;20208;-84
2023/11/30 05:44:38;;;;;;;59.45;45.28;;;;;;;;;;5077724;28;20600;-85
2023/11/30 05:47:05;;;;;;;60.85;46.92;;;;;;;;;;5076479;28;20277;-85
2023/11/30 05:49:34;;;;;;;74.22;51.28;;;;;;;;;;5075372;28;20203;-85
2023/11/30 05:52:01;;;;;;;66.93;47.70;;;;;;;;;;5067067;28;20746;-84
2023/11/30 05:54:28;;;;;;;72.20;50.13;;;;;;;;;;5057392;28;20613;-85
2023/11/30 05:56:56;;;;;;;56.13;44.78;;;;;;;;;;5056146;28;20278;-85
2023/11/30 05:59:23;;;;;;;70.55;50.90;;;;;;;;;;5056519;28;20248;-85
2023/11/30 06:01:49;;;;;;;71.40;50.65;;;;;;;;;;5056150;28;20628;-85
2023/11/30 06:04:16;;;;;;;54.88;45.20;;;;;;;;;;5054754;28;20215;-83
2023/11/30 06:06:45;;;;;;;61.33;47.30;;;;;;;;;;5055630;28;20307;-83
2023/11/30 06:09:14;;;;;;;59.63;47.17;;;;;;;;;;5060552;28;20208;-84
2023/11/30 06:11:42;;;;;;;50.78;44.78;;;;;;;;;;5070745;28;20684;-84
2023/11/30 06:14:09;;;;;;;62.60;47.53;;;;;;;;;;5054940;28;20255;-84
2023/11/30 06:16:36;;;;;;;53.85;44.28;;;;;;;;;;5055460;28;20227;-85
2023/11/30 06:19:04;;;;;;;55.95;44.83;;;;;;;;;;5056079;28;20294;-83
2023/11/30 06:21:31;;;;;;;48.78;42.20;;;;;;;;;;5057563;28;20921;-83
2023/11/30 06:23:59;;;;;;;63.15;45.05;;;;;;;;;;5058147;28;20212;-83
2023/11/30 06:26:26;;;;;;;51.40;43.08;;;;;;;;;;5058141;28;20243;-83
2023/11/30 06:28:53;;;;;;;53.42;39.58;;;;;;;;;;5058626;28;20258;-82
2023/11/30 06:31:20;;;;;;;56.92;44.08;;;;;;;;;;5058154;28;20228;-82
2023/11/30 06:33:47;;;;;;;55.97;41.42;;;;;;;;;;5058432;28;20222;-83
2023/11/30 06:36:16;;;;;;;53.58;41.20;;;;;;;;;;5057778;28;20219;-82
2023/11/30 06:38:43;;;;;;;44.75;39.53;;;;;;;;;;5057438;28;20208;-83
2023/11/30 06:41:15;;;;;;;46.17;40.05;;;;;;;;;;5059817;28;20236;-82
2023/11/30 06:43:42;;;;;;;52.53;40.97;;;;;;;;;;5075885;28;20212;-84
2023/11/30 06:46:09;;;;;;;46.63;40.08;;;;;;;;;;5078678;28;20215;-82
2023/11/30 06:48:36;;;;;;;53.83;41.38;;;;;;;;;;5079370;28;20207;-83
2023/11/30 06:51:07;;;;;;;48.03;41.33;;;;;;;;;;5071069;28;20223;-82
2023/11/30 06:53:34;;;;;;;46.88;40.90;;;;;;;;;;5081537;28;20274;-83
2023/11/30 06:56:01;;;;;;;46.42;40.75;;;;;;;;;;5064281;28;20294;-82
2023/11/30 06:58:30;;;;;;;48.90;41.95;;;;;;;;;;5067222;28;20666;-81
2023/11/30 07:00:57;;;;;;;49.17;42.25;;;;;;;;;;5065833;28;20212;-83
2023/11/30 07:03:28;;;;;;;54.08;42.80;;;;;;;;;;5058890;28;20592;-81
2023/11/30 07:05:55;;;;;;;50.63;40.22;;;;;;;;;;5058572;28;20214;-82
2023/11/30 07:08:22;;;;;;;46.55;39.53;;;;;;;;;;5058759;28;20220;-82
2023/11/30 07:10:49;;;;;;;55.08;42.05;;;;;;;;;;5065967;28;20646;-79
2023/11/30 07:13:17;;;;;;;47.85;40.22;;;;;;;;;;5068660;28;20211;-78
2023/11/30 07:18:48;;;;;;;51.70;40.60;;;;;;;;;;5070447;28;20306;-76
2023/11/30 07:21:15;;;;;;;58.13;40.67;;;;;;;;;;5075186;28;20210;-79
2023/11/30 07:23:43;;;;;;;82.88;51.20;;;;;;;;;;5078066;28;20204;-80
2023/11/30 07:26:13;;;;;;;83.40;50.15;;;;;;;;;;5077991;28;20230;-79
2023/11/30 07:31:44;;;;;;;62.75;44.70;;;;;;;;;;5075922;28;20222;-79
2023/11/30 07:34:13;;;;;;;85.38;50.88;;;;;;;;;;5078028;28;20200;-85
2023/11/30 07:36:40;;;;;;;79.82;49.97;;;;;;;;;;5074548;28;20232;-78
2023/11/30 07:39:08;;;;;;;67.18;47.20;;;;;;;;;;5074750;28;20300;-77
2023/11/30 07:41:35;;;;;;;59.03;43.63;;;;;;;;;;5076077;28;20206;-78
2023/11/30 07:44:14;;;;;;;63.45;44.20;;;;;;;;;;5071831;28;20261;-77
2023/11/30 07:46:41;;;;;;;52.17;43.92;;;;;;;;;;5069969;28;20227;-77
2023/11/30 07:49:08;;;;;;;47.33;40.30;;;;;;;;;;5063977;28;20216;-78
2023/11/30 07:51:36;;;;;;;56.88;44.25;;;;;;;;;;5053064;28;20228;-78
2023/11/30 07:54:03;;;;;;;50.85;42.28;;;;;;;;;;5052409;28;20265;-78
2023/11/30 07:59:34;;;;;;;48.50;38.90;;;;;;;;;;5051222;28;20306;-78
2023/11/30 08:02:01;;;;;;;50.88;42.13;;;;;;;;;;5052815;28;20200;-77
2023/11/30 08:04:28;;;;;;;46.90;39.85;;;;;;;;;;5052342;28;20660;-78
2023/11/30 08:06:57;;;;;;;48.65;42.28;;;;;;;;;;5052141;28;20763;-78
2023/11/30 08:09:24;;;;;;;51.70;42.15;;;;;;;;;;5052972;28;20208;-78
2023/11/30 08:11:51;;;;;;;52.65;40.05;;;;;;;;;;5052731;28;20216;-78
2023/11/30 08:14:18;;;;;;;47.22;41.05;;;;;;;;;;5051977;28;20227;-78
2023/11/30 08:16:45;;;;;;;47.33;39.97;;;;;;;;;;5052666;28;20628;-77
2023/11/30 08:19:12;;;;;;;45.45;40.22;;;;;;;;;;5052665;28;20204;-78
2023/11/30 08:21:40;;;;;;;46.63;41.10;;;;;;;;;;5066646;28;20207;-82
2023/11/30 08:24:09;;;;;;;43.58;38.95;;;;;;;;;;5077353;28;20323;-78
2023/11/30 08:26:36;;;;;;;43.38;38.70;;;;;;;;;;5076798;28;20706;-80
2023/11/30 08:29:03;;;;;;;41.15;37.22;;;;;;;;;;5077584;28;20212;-79
2023/11/30 08:31:30;;;;;;;44.60;39.53;;;;;;;;;;5078871;28;20231;-82
2023/11/30 08:33:57;;;;;;;46.28;40.20;;;;;;;;;;5076150;28;20199;-78
2023/11/30 08:36:24;;;;;;;45.88;41.03;;;;;;;;;;5077790;28;20234;-83
2023/11/30 08:38:52;;;;;;;41.28;37.03;;;;;;;;;;5079774;28;20207;-84
2023/11/30 08:41:21;;;;;;;39.42;35.60;;;;;;;;;;5078869;28;20199;-84
2023/11/30 08:43:48;;;;;;;40.78;36.65;;;;;;;;;;5080226;28;20239;-82
2023/11/30 08:46:15;;;;;;;39.75;35.58;;;;;;;;;;5080817;28;20203;-81
2023/11/30 08:48:42;;;;;;;41.40;37.05;;;;;;;;;;5080311;28;20226;-81
2023/11/30 08:51:10;;;;;;;38.63;35.33;;;;;;;;;;5079612;28;20219;-83
2023/11/30 08:53:37;;;;;;;39.40;35.78;;;;;;;;;;5078507;28;20215;-81
2023/11/30 08:56:05;;;;;;;37.25;33.55;;;;;;;;;;5077062;28;20273;-78
2023/11/30 08:58:33;;;;;;;37.50;33.55;;;;;;;;;;5074011;28;20253;-79
2023/11/30 09:01:00;;;;;;;38.45;34.55;;;;;;;;;;5073477;28;20265;-79
2023/11/30 09:03:27;;;;;;;35.92;32.42;;;;;;;;;;5073102;28;20212;-79
2023/11/30 09:05:54;;;;;;;32.78;29.60;;;;;;;;;;5071999;28;20196;-79
2023/11/30 09:08:22;;;;;;;32.65;29.45;;;;;;;;;;5076968;28;20219;-81
2023/11/30 09:10:49;;;;;;;33.10;30.10;;;;;;;;;;5082066;28;20210;-82
2023/11/30 09:13:16;;;;;;;32.03;29.02;;;;;;;;;;5079326;28;20284;-80
2023/11/30 09:15:45;;;;;;;33.83;30.88;;;;;;;;;;5074561;28;20562;-79
2023/11/30 09:18:12;;;;;;;30.35;27.65;;;;;;;;;;5052056;28;20595;-78
2023/11/30 09:20:39;;;;;;;31.75;28.92;;;;;;;;;;5055066;28;20208;-78
2023/11/30 09:23:07;;;;;;;32.15;29.05;;;;;;;;;;5056894;28;20277;-78
2023/11/30 09:25:34;;;;;;;33.10;29.70;;;;;;;;;;5052007;28;20211;-78
2023/11/30 09:28:01;;;;;;;30.25;27.83;;;;;;;;;;5051042;28;20303;-79
2023/11/30 09:30:28;;;;;;;29.80;27.35;;;;;;;;;;5052698;28;20196;-79
2023/11/30 09:32:56;;;;;;;30.98;28.13;;;;;;;;;;5054606;28;20227;-79
2023/11/30 09:35:24;;;;;;;30.88;28.33;;;;;;;;;;5053737;28;20215;-79
2023/11/30 09:37:51;;;;;;;27.48;25.20;;;;;;;;;;5053965;28;20220;-80
2023/11/30 09:40:18;;;;;;;28.65;26.25;;;;;;;;;;5055952;28;20181;-80
2023/11/30 09:42:46;;;;;;;29.67;27.02;;;;;;;;;;5055223;28;20281;-79
2023/11/30 09:45:13;;;;;;;31.52;28.73;;;;;;;;;;5053785;28;20274;-78
2023/11/30 09:47:41;;;;;;;30.92;28.00;;;;;;;;;;5053271;28;20232;-80
2023/11/30 09:50:10;;;;;;;29.08;26.55;;;;;;;;;;5053076;28;20680;-79
2023/11/30 09:52:37;;;;;;;28.42;26.23;;;;;;;;;;5053864;28;20223;-80
2023/11/30 09:55:06;;;;;;;28.33;25.98;;;;;;;;;;5054058;28;20204;-77
2023/11/30 09:57:34;;;;;;;30.33;27.85;;;;;;;;;;5061049;28;20223;-79
2023/11/30 10:00:01;;;;;;;29.08;26.80;;;;;;;;;;5073144;28;20214;-80
2023/11/30 10:02:28;;;;;;;29.60;27.33;;;;;;;;;;5072886;28;20678;-79
2023/11/30 10:04:56;;;;;;;28.25;26.13;;;;;;;;;;5073274;28;20199;-80
2023/11/30 10:07:25;;;;;;;30.65;27.90;;;;;;;;;;5075184;28;20262;-78
2023/11/30 10:09:52;;;;;;;28.40;26.17;;;;;;;;;;5074733;28;20207;-80
2023/11/30 10:12:20;;;;;;;28.35;26.10;;;;;;;;;;5076369;28;20231;-80
2023/11/30 10:14:48;;;;;;;27.77;25.58;;;;;;;;;;5075885;28;20250;-78
2023/11/30 10:17:15;;;;;;;28.45;26.50;;;;;;;;;;5076155;28;20238;-80
2023/11/30 10:19:42;;;;;;;28.50;26.23;;;;;;;;;;5077681;28;20230;-80
2023/11/30 10:22:09;;;;;;;27.25;25.17;;;;;;;;;;5080474;28;20208;-79
2023/11/30 10:24:37;;;;;;;28.38;25.98;;;;;;;;;;5079178;28;20200;-79
2023/11/30 10:27:06;;;;;;;28.58;26.38;;;;;;;;;;5080051;28;20231;-80
2023/11/30 10:29:36;;;;;;;29.10;26.67;;;;;;;;;;5079960;28;20648;-79
2023/11/30 10:32:05;;;;;;;28.13;25.83;;;;;;;;;;5079197;28;20851;-79
2023/11/30 10:34:37;;;;;;;26.75;24.83;;;;;;;;;;5079598;28;20207;-80
2023/11/30 10:37:04;;;;;;;24.38;22.67;;;;;;;;;;5079739;28;20259;-80
2023/11/30 10:39:33;;;;;;;23.58;21.85;;;;;;;;;;5079743;28;20199;-79
2023/11/30 10:42:07;;;;;;;27.45;25.17;;;;;;;;;;5079240;28;20609;-80
2023/11/30 10:44:36;;;;;;;29.08;26.58;;;;;;;;;;5079298;28;20204;-80
2023/11/30 10:47:04;;;;;;;26.88;24.55;;;;;;;;;;5079703;28;20251;-79
2023/11/30 10:49:31;;;;;;;28.92;26.52;;;;;;;;;;5079462;28;20200;-78
2023/11/30 10:52:00;;;;;;;28.40;25.75;;;;;;;;;;5079555;28;20265;-79
2023/11/30 10:54:31;;;;;;;27.60;25.60;;;;;;;;;;5078615;28;20297;-80
2023/11/30 10:57:00;;;;;;;25.90;23.85;;;;;;;;;;5079612;28;20212;-80
2023/11/30 10:59:30;;;;;;;26.65;24.55;;;;;;;;;;5078578;28;20211;-81
2023/11/30 11:01:58;;;;;;;26.13;24.13;;;;;;;;;;5079959;28;20209;-79
2023/11/30 11:04:25;;;;;;;25.13;23.42;;;;;;;;;;5078586;28;20265;-80
2023/11/30 11:06:52;;;;;;;25.60;23.80;;;;;;;;;;5079767;28;20247;-80
2023/11/30 11:09:19;;;;;;;26.08;24.33;;;;;;;;;;5078945;28;20207;-80
2023/11/30 11:11:47;;;;;;;23.77;21.88;;;;;;;;;;5079131;28;20271;-80
2023/11/30 11:14:27;;;;;;;26.17;24.17;;;;;;;;;;5077707;28;20302;-80
2023/11/30 11:17:03;;;;;;;28.25;26.00;;;;;;;;;;5078344;28;20231;-80
2023/11/30 11:19:32;;;;;;;25.85;24.05;;;;;;;;;;5078095;28;20229;-80
2023/11/30 11:21:59;;;;;;;25.67;23.75;;;;;;;;;;5078483;28;20229;-78
2023/11/30 11:24:26;;;;;;;24.92;23.10;;;;;;;;;;5078276;28;20200;-78
2023/11/30 11:26:58;;;;;;;26.15;23.98;;;;;;;;;;5077184;28;20234;-79
2023/11/30 11:29:26;;;;;;;26.60;24.58;;;;;;;;;;5073280;28;20215;-79
2023/11/30 11:31:53;;;;;;;26.75;24.58;;;;;;;;;;5062397;28;20208;-79
2023/11/30 11:34:21;;;;;;;26.90;24.88;;;;;;;;;;5076734;28;20214;-79
2023/11/30 11:36:49;;;;;;;30.08;27.48;;;;;;;;;;5065534;28;20230;-78
2023/11/30 11:39:17;;;;;;;26.55;24.65;;;;;;;;;;5056958;28;20266;-79
2023/11/30 11:41:47;;;;;;;29.05;26.88;;;;;;;;;;5061510;28;20201;-82
2023/11/30 11:44:14;;;;;;;25.00;23.30;;;;;;;;;;5076230;28;20566;-82
2023/11/30 11:46:42;;;;;;;24.63;22.92;;;;;;;;;;5075193;28;20299;-74
2023/11/30 11:49:09;;;;;;;27.15;25.05;;;;;;;;;;5071722;28;20261;-74
2023/11/30 11:51:45;;;;;;;25.95;24.20;;;;;;;;;;5052702;28;20209;-75
2023/11/30 11:54:18;;;;;;;29.00;26.63;;;;;;;;;;5054280;28;20279;-81
2023/11/30 11:56:47;;;;;;;25.83;23.80;;;;;;;;;;5058427;28;20277;-84
2023/11/30 11:59:14;;;;;;;26.95;24.95;;;;;;;;;;5057998;28;20611;-80
2023/11/30 12:01:41;;;;;;;27.55;25.35;;;;;;;;;;5057368;28;20196;-83
2023/11/30 12:04:08;;;;;;;30.08;27.65;;;;;;;;;;5061286;28;20663;-83
2023/11/30 12:06:35;;;;;;;26.25;24.35;;;;;;;;;;5059889;28;20228;-79
2023/11/30 12:09:11;;;;;;;27.92;25.88;;;;;;;;;;5057277;28;20707;-80
2023/11/30 12:11:38;;;;;;;26.45;24.58;;;;;;;;;;5057002;28;20279;-80
2023/11/30 12:14:05;;;;;;;26.33;24.42;;;;;;;;;;5052648;28;20440;-78
2023/11/30 12:16:33;;;;;;;34.22;30.67;;;;;;;;;;5053780;28;20233;-78
2023/11/30 12:19:00;;;;;;;36.75;33.17;;;;;;;;;;5053483;28;20821;-77
2023/11/30 12:21:27;;;;;;;34.05;31.15;;;;;;;;;;5055236;28;20277;-76
2023/11/30 12:23:55;;;;;;;34.58;31.48;;;;;;;;;;5051980;28;20216;-76
2023/11/30 12:26:23;;;;;;;31.27;28.67;;;;;;;;;;5053071;28;20255;-76
2023/11/30 12:28:50;;;;;;;29.63;27.38;;;;;;;;;;5054446;28;20212;-80
2023/11/30 12:31:17;;;;;;;34.30;31.20;;;;;;;;;;5056866;28;20204;-76
2023/11/30 12:33:44;;;;;;;34.17;30.90;;;;;;;;;;5054176;28;20289;-81
2023/11/30 12:36:11;;;;;;;32.72;29.73;;;;;;;;;;5056993;28;20621;-83
2023/11/30 12:38:38;;;;;;;32.20;29.48;;;;;;;;;;5062437;28;20211;-82
2023/11/30 12:41:06;;;;;;;32.30;29.52;;;;;;;;;;5059139;28;20824;-77
2023/11/30 12:43:34;;;;;;;28.52;26.27;;;;;;;;;;5051213;28;20809;-77
2023/11/30 12:46:01;;;;;;;29.13;26.85;;;;;;;;;;5051491;28;20211;-78
2023/11/30 12:48:28;;;;;;;28.10;26.00;;;;;;;;;;5053746;28;20713;-79
2023/11/30 12:50:55;;;;;;;29.60;27.38;;;;;;;;;;5052568;28;20208;-79
2023/11/30 12:53:22;;;;;;;28.20;26.10;;;;;;;;;;5052780;28;20226;-77
2023/11/30 12:55:49;;;;;;;28.95;26.77;;;;;;;;;;5052152;28;20215;-77
2023/11/30 12:58:17;;;;;;;29.50;27.20;;;;;;;;;;5052247;28;20224;-77
2023/11/30 13:00:45;;;;;;;29.48;27.30;;;;;;;;;;5052777;28;20207;-78
2023/11/30 13:03:12;;;;;;;30.65;28.15;;;;;;;;;;5053030;28;20204;-76
2023/11/30 13:05:39;;;;;;;31.57;28.60;;;;;;;;;;5051326;28;20262;-76
2023/11/30 13:08:06;;;;;;;30.95;28.45;;;;;;;;;;5051186;28;20490;-77
2023/11/30 13:10:33;;;;;;;32.85;30.05;;;;;;;;;;5051735;28;20208;-75
2023/11/30 13:13:01;;;;;;;34.50;31.60;;;;;;;;;;5051621;28;20277;-76
2023/11/30 13:15:28;;;;;;;30.90;28.35;;;;;;;;;;5051155;28;20243;-77
2023/11/30 13:17:57;;;;;;;34.30;31.27;;;;;;;;;;5052042;28;20586;-76
2023/11/30 13:20:24;;;;;;;32.13;28.83;;;;;;;;;;5051699;28;20673;-77
2023/11/30 13:22:51;;;;;;;31.10;28.35;;;;;;;;;;5050950;28;20215;-76
2023/11/30 13:25:18;;;;;;;33.92;30.77;;;;;;;;;;5050855;28;20204;-75
2023/11/30 13:27:46;;;;;;;31.90;29.10;;;;;;;;;;5051936;28;20224;-76
2023/11/30 13:30:13;;;;;;;36.90;33.60;;;;;;;;;;5052248;28;20208;-76
2023/11/30 13:32:42;;;;;;;34.05;31.05;;;;;;;;;;5051150;28;20220;-82
2023/11/30 13:35:10;;;;;;;31.63;28.85;;;;;;;;;;5053260;28;20250;-82
2023/11/30 13:37:38;;;;;;;38.17;34.78;;;;;;;;;;5059346;28;20219;-79
2023/11/30 13:40:07;;;;;;;33.15;30.33;;;;;;;;;;5056511;28;20220;-81
2023/11/30 13:42:34;;;;;;;33.28;30.48;;;;;;;;;;5054870;28;20227;-79
2023/11/30 13:45:01;;;;;;;32.75;29.75;;;;;;;;;;5054944;28;20188;-79
2023/11/30 13:47:28;;;;;;;36.42;32.92;;;;;;;;;;5055157;28;20282;-83
2023/11/30 13:49:56;;;;;;;30.55;27.85;;;;;;;;;;5054227;28;20204;-82
2023/11/30 13:52:25;;;;;;;30.83;28.27;;;;;;;;;;5055540;28;20715;-80
2023/11/30 13:54:52;;;;;;;32.55;29.70;;;;;;;;;;5054561;28;20208;-82
2023/11/30 13:57:19;;;;;;;35.83;32.55;;;;;;;;;;5058124;28;20302;-80
2023/11/30 13:59:46;;;;;;;32.67;29.85;;;;;;;;;;5057863;28;20298;-77
2023/11/30 14:02:13;;;;;;;30.90;28.00;;;;;;;;;;5055507;28;20623;-77
2023/11/30 14:04:40;;;;;;;32.85;29.92;;;;;;;;;;5055591;28;20210;-79
2023/11/30 14:07:07;;;;;;;34.03;31.02;;;;;;;;;;5055933;28;20224;-79
2023/11/30 14:09:36;;;;;;;35.45;32.15;;;;;;;;;;5056088;28;20257;-78
2023/11/30 14:12:03;;;;;;;36.50;32.95;;;;;;;;;;5055304;28;20723;-78
2023/11/30 14:14:30;;;;;;;36.92;33.53;;;;;;;;;;5054600;28;20635;-79
2023/11/30 14:16:57;;;;;;;36.22;33.00;;;;;;;;;;5058231;28;20224;-79
2023/11/30 14:19:24;;;;;;;36.85;33.45;;;;;;;;;;5058968;28;20676;-81
2023/11/30 14:21:51;;;;;;;36.42;32.83;;;;;;;;;;5059189;28;20572;-79
2023/11/30 14:24:18;;;;;;;36.28;32.88;;;;;;;;;;5058602;28;20265;-81
2023/11/30 14:26:46;;;;;;;41.58;37.67;;;;;;;;;;5058048;28;20230;-80